Flight Track Log - Related Links

Times and Time Zones

All times are in EDT time to prevent confusion due to time zone crossing. See the SWA3206 flight status page for this flight to view local times or setup timezone preferences in your user account.

Time Position Orientation Groundspeed Altitude Reporting Facility
EDT Latitude Longitude Course Direction KTS MPH feet Rate Location/Type
Wed 06:57:52 PM 32.7500 -117.2667 292° West 200 230 4,300  Level Southern California TRACON
Wed 06:58:08 PM 32.7558 -117.2853 290° West 192 221 4,900 3,740 Climbing Los Angeles Center
Wed 06:59:09 PM 32.7167 -117.3297 224° Southwest 228 262 9,100 2,976 Climbing Los Angeles Center
Wed 07:00:11 PM 32.6792 -117.2553 121° Southeast 287 330 11,000 3,000 Climbing Los Angeles Center
Wed 07:01:13 PM 32.6469 -117.1219 106° East 346 398 15,300 3,774 Climbing Los Angeles Center
Wed 07:02:15 PM 32.6164 -117.0033 107° East 368 423 18,800 3,097 Climbing Los Angeles Center
Wed 07:03:17 PM 32.6200 -116.8778 88° East 382 440 21,700 2,855 Climbing Los Angeles Center
Wed 07:04:19 PM 32.6331 -116.7456 83° East 398 458 24,700 2,371 Climbing Los Angeles Center
Wed 07:05:21 PM 32.6475 -116.6069 83° East 422 486 26,600 1,113 Climbing Los Angeles Center
Wed 07:06:23 PM 32.6631 -116.4367 84° East 438 504 27,000 194 Climbing Los Angeles Center
Wed 07:07:25 PM 32.6742 -116.3244 83° East 437 503 27,000  Level Los Angeles Center
Wed 07:08:28 PM 32.6897 -116.1553 84° East 437 503 27,000  Level Los Angeles Center
Wed 07:09:30 PM 32.7028 -116.0136 84° East 437 503 27,000  Level Los Angeles Center
Wed 07:10:32 PM 32.7167 -115.8719 83° East 436 502 27,000  Level Los Angeles Center
Wed 07:11:34 PM 32.7322 -115.7019 84° East 434 499 27,000  Level Los Angeles Center
Wed 07:12:48 PM 32.7450 -115.5589 84° East 437 503 27,000  Level Los Angeles Center
Wed 07:14:02 PM 32.7533 -115.3847 87° East 442 509 27,000  Level Los Angeles Center
Wed 07:15:04 PM 32.7586 -115.2078 88° East 450 518 27,000  Level Los Angeles Center
Wed 07:16:07 PM 32.7625 -115.0608 88° East 445 512 27,000  Level Los Angeles Center
Wed 07:17:09 PM 32.7661 -114.8817 89° East 451 519 27,000  Level Los Angeles Center
Wed 07:18:11 PM 32.7689 -114.7322 89° East 453 521 27,000  Level Los Angeles Center
Wed 07:19:12 PM 32.7708 -114.6108 89° East 459 528 27,000  Level Los Angeles Center
Wed 07:20:15 PM 32.7728 -114.4292 89° East 457 526 27,000  Level Los Angeles Center
Wed 07:21:17 PM 32.7756 -114.2775 89° East 457 526 27,000 -683 Level Los Angeles Center
Wed 07:22:18 PM 32.7756 -114.1111 90° East 457 526 25,600 -976 Descending Albuquerque Center
Wed 07:23:20 PM 32.7769 -113.9653 89° East 446 513 25,000 -293 Descending Albuquerque Center
Wed 07:24:21 PM 32.7981 -113.8208 80° East 441 507 25,000  Level Albuquerque Center
Wed 07:25:23 PM 32.8264 -113.6811 76° East 441 507 25,000  Level Albuquerque Center
Wed 07:26:25 PM 32.9058 -113.5678 50° Northeast 444 511 25,000 -585 Level Albuquerque Center
Wed 07:27:26 PM 32.9872 -113.4578 49° Northeast 442 509 23,800 -1,512 Descending Albuquerque Center
Wed 07:28:28 PM 33.0839 -113.3272 49° Northeast 438 504 21,900 -1,839 Descending Albuquerque Center
Wed 07:29:30 PM 33.1578 -113.2256 49° Northeast 414 476 20,000 -1,984 Descending Albuquerque Center
Wed 07:30:32 PM 33.2292 -113.1278 49° Northeast 396 456 17,800 -1,512 Descending Albuquerque Center
Wed 07:31:33 PM 33.2750 -113.0183 63° Northeast 390 449 16,900 -537 Descending Albuquerque Center
Wed 07:32:35 PM 33.2786 -112.8983 88° East 365 420 16,700 -435 Descending Albuquerque Center
Wed 07:33:37 PM 33.2808 -112.7828 89° East 354 407 16,000 -585 Descending Albuquerque Center
Wed 07:34:38 PM 33.2825 -112.6714 89° East 342 394 15,500 -1,073 Descending Albuquerque Center
Wed 07:35:40 PM 33.2869 -112.5461 88° East 331 381 13,800 -1,597 Descending Albuquerque Center
Wed 07:36:42 PM 33.2894 -112.4419 88° East 321 369 12,200 -1,366 Descending Albuquerque Center
Wed 07:37:43 PM 33.2917 -112.3392 88° East 315 362 11,000 -1,024 Descending Albuquerque Center
Wed 07:38:45 PM 33.3000 -112.2389 84° East 310 357 10,100 -968 Descending Albuquerque Center
Wed 07:39:47 PM 33.3058 -112.1464 86° East 292 336 9,000 -780 Descending Albuquerque Center
Wed 07:40:48 PM 33.3189 -112.0622 79° East 273 314 8,500 -927 Descending Albuquerque Center
Wed 07:41:50 PM 33.3417 -111.9678 74° East 253 291 7,100 -1,113 Descending Albuquerque Center
Wed 07:42:52 PM 33.3469 -111.8897 85° East 246 283 6,200 -1,024 Descending Albuquerque Center
Wed 07:43:53 PM 33.3903 -111.8528 35° Northeast 238 274 5,000 -1,220 Descending Albuquerque Center
Wed 07:44:55 PM 33.4303 -111.8781 332° Northwest 209 241 3,700 -1,306 Descending Albuquerque Center
Wed 07:45:57 PM 33.4294 -111.9336 269° West 184 212 2,300 -1,024 Descending Albuquerque Center
Wed 07:46:58 PM 33.4308 -111.9875 272° West 167 192 1,600 -689 Descending Albuquerque Center

Login

Don't have an account? Register now (free) for customized features, flight alerts, and more!